sensor_id;sensor_type;location;lat;lon;timestamp;pressure;altitude;pressure_sealevel;temperature
61595;BMP280;47397;48.194;11.632;2023-03-01T00:00:29;96523.75;;;1.40
61595;BMP280;47397;48.194;11.632;2023-03-01T00:01:32;96526.66;;;1.19
61595;BMP280;47397;48.194;11.632;2023-03-01T00:02:32;96527.53;;;1.21
61595;BMP280;47397;48.194;11.632;2023-03-01T00:03:33;96531.25;;;1.39
61595;BMP280;47397;48.194;11.632;2023-03-01T00:04:33;96538.63;;;1.33
61595;BMP280;47397;48.194;11.632;2023-03-01T00:05:34;96527.84;;;1.35
61595;BMP280;47397;48.194;11.632;2023-03-01T00:06:35;96522.75;;;1.32
61595;BMP280;47397;48.194;11.632;2023-03-01T00:07:35;96530.09;;;1.24
61595;BMP280;47397;48.194;11.632;2023-03-01T00:08:36;96517.69;;;1.29
61595;BMP280;47397;48.194;11.632;2023-03-01T00:09:36;96524.69;;;1.45
61595;BMP280;47397;48.194;11.632;2023-03-01T00:10:37;96527.91;;;1.38
61595;BMP280;47397;48.194;11.632;2023-03-01T00:11:37;96521.00;;;1.28
61595;BMP280;47397;48.194;11.632;2023-03-01T00:12:38;96513.38;;;1.23
61595;BMP280;47397;48.194;11.632;2023-03-01T00:13:38;96523.09;;;1.11
61595;BMP280;47397;48.194;11.632;2023-03-01T00:14:39;96520.34;;;0.99
61595;BMP280;47397;48.194;11.632;2023-03-01T00:15:39;96522.91;;;1.02
61595;BMP280;47397;48.194;11.632;2023-03-01T00:16:42;96509.38;;;0.94
61595;BMP280;47397;48.194;11.632;2023-03-01T00:17:43;96510.59;;;1.11
61595;BMP280;47397;48.194;11.632;2023-03-01T00:18:44;96518.38;;;1.22
61595;BMP280;47397;48.194;11.632;2023-03-01T00:19:44;96524.25;;;1.24
61595;BMP280;47397;48.194;11.632;2023-03-01T00:20:49;96514.03;;;1.15
61595;BMP280;47397;48.194;11.632;2023-03-01T00:21:49;96516.41;;;1.10
61595;BMP280;47397;48.194;11.632;2023-03-01T00:22:50;96515.75;;;1.17
61595;BMP280;47397;48.194;11.632;2023-03-01T00:23:51;96518.00;;;1.07
61595;BMP280;47397;48.194;11.632;2023-03-01T00:24:52;96526.66;;;1.19
61595;BMP280;47397;48.194;11.632;2023-03-01T00:25:53;96516.78;;;1.25
61595;BMP280;47397;48.194;11.632;2023-03-01T00:26:53;96528.66;;;1.36
61595;BMP280;47397;48.194;11.632;2023-03-01T00:27:54;96519.34;;;1.29
61595;BMP280;47397;48.194;11.632;2023-03-01T00:28:56;96516.06;;;1.31
61595;BMP280;47397;48.194;11.632;2023-03-01T00:29:57;96515.06;;;1.24
61595;BMP280;47397;48.194;11.632;2023-03-01T00:31:02;96516.81;;;1.27
61595;BMP280;47397;48.194;11.632;2023-03-01T00:32:05;96516.47;;;1.12
61595;BMP280;47397;48.194;11.632;2023-03-01T00:33:05;96514.03;;;1.15
61595;BMP280;47397;48.194;11.632;2023-03-01T00:34:06;96508.34;;;1.22
61595;BMP280;47397;48.194;11.632;2023-03-01T00:35:07;96516.34;;;1.07
61595;BMP280;47397;48.194;11.632;2023-03-01T00:36:08;96515.69;;;1.14
61595;BMP280;47397;48.194;11.632;2023-03-01T00:37:09;96510.84;;;1.22
61595;BMP280;47397;48.194;11.632;2023-03-01T00:38:09;96508.47;;;1.28
61595;BMP280;47397;48.194;11.632;2023-03-01T00:39:12;96508.63;;;1.36
61595;BMP280;47397;48.194;11.632;2023-03-01T00:40:13;96503.31;;;1.20
61595;BMP280;47397;48.194;11.632;2023-03-01T00:41:16;96495.69;;;1.16
61595;BMP280;47397;48.194;11.632;2023-03-01T00:42:17;96514.16;;;1.21
61595;BMP280;47397;48.194;11.632;2023-03-01T00:43:17;96502.53;;;1.23
61595;BMP280;47397;48.194;11.632;2023-03-01T00:44:17;96511.03;;;1.31
61595;BMP280;47397;48.194;11.632;2023-03-01T00:45:18;96507.78;;;1.35
61595;BMP280;47397;48.194;11.632;2023-03-01T00:46:21;96507.78;;;1.35
61595;BMP280;47397;48.194;11.632;2023-03-01T00:47:23;96507.50;;;1.21
61595;BMP280;47397;48.194;11.632;2023-03-01T00:48:24;96500.69;;;1.14
61595;BMP280;47397;48.194;11.632;2023-03-01T00:49:24;96507.56;;;1.24
61595;BMP280;47397;48.194;11.632;2023-03-01T00:50:24;96502.41;;;1.17
61595;BMP280;47397;48.194;11.632;2023-03-01T00:51:27;96499.13;;;1.19
61595;BMP280;47397;48.194;11.632;2023-03-01T00:52:27;96497.44;;;1.18
61595;BMP280;47397;48.194;11.632;2023-03-01T00:53:28;96506.63;;;1.19
61595;BMP280;47397;48.194;11.632;2023-03-01T00:54:28;96502.66;;;1.29
61595;BMP280;47397;48.194;11.632;2023-03-01T00:55:28;96498.53;;;1.31
61595;BMP280;47397;48.194;11.632;2023-03-01T00:56:30;96501.16;;;1.37
61595;BMP280;47397;48.194;11.632;2023-03-01T00:57:30;96500.06;;;1.24
61595;BMP280;47397;48.194;11.632;2023-03-01T00:58:31;96490.81;;;1.22
61595;BMP280;47397;48.194;11.632;2023-03-01T00:59:31;96494.03;;;1.16
61595;BMP280;47397;48.194;11.632;2023-03-01T01:00:32;96491.59;;;1.19
61595;BMP280;47397;48.194;11.632;2023-03-01T01:01:32;96498.31;;;1.20
61595;BMP280;47397;48.194;11.632;2023-03-01T01:02:35;96493.56;;;1.33
61595;BMP280;47397;48.194;11.632;2023-03-01T01:03:35;96485.81;;;1.22
61595;BMP280;47397;48.194;11.632;2023-03-01T01:04:36;96485.09;;;1.28
61595;BMP280;47397;48.194;11.632;2023-03-01T01:05:36;96478.34;;;1.23
61595;BMP280;47397;48.194;11.632;2023-03-01T01:06:39;96474.59;;;1.06
61595;BMP280;47397;48.194;11.632;2023-03-01T01:07:39;96477.09;;;1.06
61595;BMP280;47397;48.194;11.632;2023-03-01T01:08:40;96481.16;;;1.01
61595;BMP280;47397;48.194;11.632;2023-03-01T01:09:40;96479.75;;;1.12
61595;BMP280;47397;48.194;11.632;2023-03-01T01:10:43;96473.81;;;1.09
61595;BMP280;47397;48.194;11.632;2023-03-01T01:11:44;96473.81;;;1.09
61595;BMP280;47397;48.194;11.632;2023-03-01T01:12:45;96473.84;;;1.10
61595;BMP280;47397;48.194;11.632;2023-03-01T01:13:46;96479.00;;;1.15
61595;BMP280;47397;48.194;11.632;2023-03-01T01:14:50;96469.16;;;1.24
61595;BMP280;47397;48.194;11.632;2023-03-01T01:15:50;96468.44;;;1.30
61595;BMP280;47397;48.194;11.632;2023-03-01T01:16:51;96468.19;;;1.17
61595;BMP280;47397;48.194;11.632;2023-03-01T01:17:53;96472.59;;;1.29
61595;BMP280;47397;48.194;11.632;2023-03-01T01:18:53;96467.56;;;1.28
61595;BMP280;47397;48.194;11.632;2023-03-01T01:19:54;96470.66;;;1.16
61595;BMP280;47397;48.194;11.632;2023-03-01T01:20:54;96462.63;;;1.31
61595;BMP280;47397;48.194;11.632;2023-03-01T01:21:55;96465.97;;;1.31
61595;BMP280;47397;48.194;11.632;2023-03-01T01:22:55;96464.47;;;1.39
61595;BMP280;47397;48.194;11.632;2023-03-01T01:23:55;96468.47;;;1.31
61595;BMP280;47397;48.194;11.632;2023-03-01T01:24:56;96464.88;;;1.18
61595;BMP280;47397;48.194;11.632;2023-03-01T01:25:56;96456.59;;;1.21
61595;BMP280;47397;48.194;11.632;2023-03-01T01:26:57;96451.69;;;1.27
61595;BMP280;47397;48.194;11.632;2023-03-01T01:27:57;96454.31;;;1.33
61595;BMP280;47397;48.194;11.632;2023-03-01T01:28:58;96446.63;;;1.24
61595;BMP280;47397;48.194;11.632;2023-03-01T01:29:59;96453.09;;;1.14
61595;BMP280;47397;48.194;11.632;2023-03-01T01:31:00;96445.56;;;1.13
61595;BMP280;47397;48.194;11.632;2023-03-01T01:32:00;96459.53;;;1.05
61595;BMP280;47397;48.194;11.632;2023-03-01T01:33:02;96449.72;;;1.12
61595;BMP280;47397;48.194;11.632;2023-03-01T01:34:04;96458.75;;;1.07
61595;BMP280;47397;48.194;11.632;2023-03-01T01:35:05;96454.56;;;1.06
61595;BMP280;47397;48.194;11.632;2023-03-01T01:36:07;96447.38;;;1.20
61595;BMP280;47397;48.194;11.632;2023-03-01T01:37:07;96452.56;;;1.29
61595;BMP280;47397;48.194;11.632;2023-03-01T01:38:08;96452.53;;;1.28
61595;BMP280;47397;48.194;11.632;2023-03-01T01:39:08;96451.97;;;1.41
61595;BMP280;47397;48.194;11.632;2023-03-01T01:40:11;96447.50;;;1.26
61595;BMP280;47397;48.194;11.632;2023-03-01T01:41:13;96440.78;;;1.23
61595;BMP280;47397;48.194;11.632;2023-03-01T01:42:15;96450.94;;;1.31
61595;BMP280;47397;48.194;11.632;2023-03-01T01:43:20;96455.16;;;1.34
61595;BMP280;47397;48.194;11.632;2023-03-01T01:44:22;96443.53;;;1.36
61595;BMP280;47397;48.194;11.632;2023-03-01T01:45:32;96445.91;;;1.30
61595;BMP280;47397;48.194;11.632;2023-03-01T01:46:33;96453.47;;;1.33
61595;BMP280;47397;48.194;11.632;2023-03-01T01:47:35;96445.75;;;1.22
61595;BMP280;47397;48.194;11.632;2023-03-01T01:48:40;96449.00;;;1.18
61595;BMP280;47397;48.194;11.632;2023-03-01T01:49:44;96443.28;;;1.23
61595;BMP280;47397;48.194;11.632;2023-03-01T01:50:52;96437.22;;;1.12
61595;BMP280;47397;48.194;11.632;2023-03-01T01:51:59;96443.28;;;1.23
61595;BMP280;47397;48.194;11.632;2023-03-01T01:53:01;96448.44;;;1.31
61595;BMP280;47397;48.194;11.632;2023-03-01T01:54:02;96442.88;;;1.05
61595;BMP280;47397;48.194;11.632;2023-03-01T01:55:07;96440.97;;;0.93
61595;BMP280;47397;48.194;11.632;2023-03-01T01:56:11;96431.34;;;1.12
61595;BMP280;47397;48.194;11.632;2023-03-01T01:57:16;96435.47;;;1.11
61595;BMP280;47397;48.194;11.632;2023-03-01T01:58:19;96434.81;;;1.18
61595;BMP280;47397;48.194;11.632;2023-03-01T01:59:21;96435.03;;;1.29
61595;BMP280;47397;48.194;11.632;2023-03-01T02:00:27;96427.72;;;1.38
61595;BMP280;47397;48.194;11.632;2023-03-01T02:01:28;96430.94;;;1.33
61595;BMP280;47397;48.194;11.632;2023-03-01T02:02:29;96438.34;;;1.27
61595;BMP280;47397;48.194;11.632;2023-03-01T02:03:32;96426.72;;;1.30
61595;BMP280;47397;48.194;11.632;2023-03-01T02:04:35;96429.28;;;1.33
61595;BMP280;47397;48.194;11.632;2023-03-01T02:05:38;96430.06;;;1.31
61595;BMP280;47397;48.194;11.632;2023-03-01T02:06:44;96432.63;;;1.34
61595;BMP280;47397;48.194;11.632;2023-03-01T02:07:46;96434.09;;;1.24
61595;BMP280;47397;48.194;11.632;2023-03-01T02:08:48;96426.56;;;1.22
61595;BMP280;47397;48.194;11.632;2023-03-01T02:09:51;96423.91;;;1.15
61595;BMP280;47397;48.194;11.632;2023-03-01T02:10:52;96421.72;;;0.91
61595;BMP280;47397;48.194;11.632;2023-03-01T02:11:53;96428.56;;;1.00
61595;BMP280;47397;48.194;11.632;2023-03-01T02:12:54;96420.25;;;1.01
61595;BMP280;47397;48.194;11.632;2023-03-01T02:13:55;96423.88;;;1.13
61595;BMP280;47397;48.194;11.632;2023-03-01T02:14:56;96421.78;;;0.94
61595;BMP280;47397;48.194;11.632;2023-03-01T02:15:56;96418.50;;;0.97
61595;BMP280;47397;48.194;11.632;2023-03-01T02:16:57;96425.59;;;1.16
61595;BMP280;47397;48.194;11.632;2023-03-01T02:17:57;96427.25;;;1.15
61595;BMP280;47397;48.194;11.632;2023-03-01T02:18:58;96422.91;;;1.08
61595;BMP280;47397;48.194;11.632;2023-03-01T02:20:07;96425.53;;;1.13
61595;BMP280;47397;48.194;11.632;2023-03-01T02:21:12;96423.22;;;0.83
61595;BMP280;47397;48.194;11.632;2023-03-01T02:22:20;96421.06;;;1.00
61595;BMP280;47397;48.194;11.632;2023-03-01T02:23:22;96414.47;;;1.03
61595;BMP280;47397;48.194;11.632;2023-03-01T02:24:28;96424.59;;;1.09
61595;BMP280;47397;48.194;11.632;2023-03-01T02:25:36;96424.75;;;1.15
61595;BMP280;47397;48.194;11.632;2023-03-01T02:26:41;96427.25;;;1.15
61595;BMP280;47397;48.194;11.632;2023-03-01T02:27:48;96414.53;;;1.06
61595;BMP280;47397;48.194;11.632;2023-03-01T02:28:51;96419.13;;;0.86
61595;BMP280;47397;48.194;11.632;2023-03-01T02:29:52;96411.72;;;0.92
61595;BMP280;47397;48.194;11.632;2023-03-01T02:30:53;96426.88;;;0.99
61595;BMP280;47397;48.194;11.632;2023-03-01T02:31:55;96419.91;;;0.84
61595;BMP280;47397;48.194;11.632;2023-03-01T02:32:58;96408.38;;;0.92
61595;BMP280;47397;48.194;11.632;2023-03-01T02:34:00;96416.09;;;1.01
61595;BMP280;47397;48.194;11.632;2023-03-01T02:35:01;96412.31;;;0.81
61595;BMP280;47397;48.194;11.632;2023-03-01T02:36:05;96413.13;;;0.80
61595;BMP280;47397;48.194;11.632;2023-03-01T02:37:09;96416.44;;;0.79
61595;BMP280;47397;48.194;11.632;2023-03-01T02:38:11;96410.25;;;1.02
61595;BMP280;47397;48.194;11.632;2023-03-01T02:39:15;96413.22;;;0.84
61595;BMP280;47397;48.194;11.632;2023-03-01T02:40:18;96411.41;;;0.77
61595;BMP280;47397;48.194;11.632;2023-03-01T02:41:20;96404.03;;;0.83
61595;BMP280;47397;48.194;11.632;2023-03-01T02:42:22;96403.09;;;0.78
61595;BMP280;47397;48.194;11.632;2023-03-01T02:43:27;96408.88;;;0.76
61595;BMP280;47397;48.194;11.632;2023-03-01T02:44:30;96407.97;;;0.74
61595;BMP280;47397;48.194;11.632;2023-03-01T02:45:31;96407.38;;;0.84
61595;BMP280;47397;48.194;11.632;2023-03-01T02:46:31;96410.66;;;0.81
61595;BMP280;47397;48.194;11.632;2023-03-01T02:47:31;96409.28;;;0.96
61595;BMP280;47397;48.194;11.632;2023-03-01T02:48:40;96412.50;;;0.90
61595;BMP280;47397;48.194;11.632;2023-03-01T02:49:40;96408.88;;;0.76
61595;BMP280;47397;48.194;11.632;2023-03-01T02:50:56;96405.41;;;0.71
61595;BMP280;47397;48.194;11.632;2023-03-01T02:52:15;96405.66;;;0.81
61595;BMP280;47397;48.194;11.632;2023-03-01T02:53:23;96406.44;;;0.79
61595;BMP280;47397;48.194;11.632;2023-03-01T02:54:29;96403.44;;;0.57
61595;BMP280;47397;48.194;11.632;2023-03-01T02:55:31;96406.22;;;0.70
61595;BMP280;47397;48.194;11.632;2023-03-01T02:56:31;96396.28;;;0.73
61595;BMP280;47397;48.194;11.632;2023-03-01T02:57:34;96392.91;;;0.72
61595;BMP280;47397;48.194;11.632;2023-03-01T02:58:35;96401.47;;;0.80
61595;BMP280;47397;48.194;11.632;2023-03-01T02:59:38;96402.25;;;0.78
61595;BMP280;47397;48.194;11.632;2023-03-01T03:00:41;96402.28;;;0.79
61595;BMP280;47397;48.194;11.632;2023-03-01T03:01:42;96401.94;;;0.66
61595;BMP280;47397;48.194;11.632;2023-03-01T03:02:42;96396.78;;;0.58
61595;BMP280;47397;48.194;11.632;2023-03-01T03:03:43;96405.34;;;0.68
61595;BMP280;47397;48.194;11.632;2023-03-01T03:04:43;96405.47;;;0.74
61595;BMP280;47397;48.194;11.632;2023-03-01T03:05:44;96395.25;;;0.65
61595;BMP280;47397;48.194;11.632;2023-03-01T03:06:45;96402.72;;;0.63
61595;BMP280;47397;48.194;11.632;2023-03-01T03:07:47;96400.16;;;0.60
61595;BMP280;47397;48.194;11.632;2023-03-01T03:08:48;96405.34;;;0.68
61595;BMP280;47397;48.194;11.632;2023-03-01T03:09:48;96405.16;;;0.60
61595;BMP280;47397;48.194;11.632;2023-03-01T03:10:49;96402.66;;;0.60
61595;BMP280;47397;48.194;11.632;2023-03-01T03:11:49;96402.47;;;0.51
61595;BMP280;47397;48.194;11.632;2023-03-01T03:12:51;96411.19;;;0.68
61595;BMP280;47397;48.194;11.632;2023-03-01T03:13:52;96406.16;;;0.67
61595;BMP280;47397;48.194;11.632;2023-03-01T03:14:54;96403.47;;;0.59
61595;BMP280;47397;48.194;11.632;2023-03-01T03:15:55;96411.72;;;0.55
61595;BMP280;47397;48.194;11.632;2023-03-01T03:16:55;96404.19;;;0.53
61595;BMP280;47397;48.194;11.632;2023-03-01T03:17:57;96395.97;;;0.59
61595;BMP280;47397;48.194;11.632;2023-03-01T03:18:57;96409.16;;;0.52
61595;BMP280;47397;48.194;11.632;2023-03-01T03:19:58;96406.00;;;0.60
61595;BMP280;47397;48.194;11.632;2023-03-01T03:20:58;96408.72;;;0.70
61595;BMP280;47397;48.194;11.632;2023-03-01T03:21:59;96401.22;;;0.70
61595;BMP280;47397;48.194;11.632;2023-03-01T03:22:59;96405.88;;;0.54
61595;BMP280;47397;48.194;11.632;2023-03-01T03:24:00;96406.81;;;0.59
61595;BMP280;47397;48.194;11.632;2023-03-01T03:25:00;96408.06;;;0.77
61595;BMP280;47397;48.194;11.632;2023-03-01T03:26:01;96404.91;;;0.48
61595;BMP280;47397;48.194;11.632;2023-03-01T03:27:02;96401.06;;;0.63
61595;BMP280;47397;48.194;11.632;2023-03-01T03:28:03;96401.41;;;0.77
61595;BMP280;47397;48.194;11.632;2023-03-01T03:29:03;96402.59;;;0.57
61595;BMP280;47397;48.194;11.632;2023-03-01T03:30:07;96397.50;;;0.52
61595;BMP280;47397;48.194;11.632;2023-03-01T03:31:08;96396.94;;;0.66
61595;BMP280;47397;48.194;11.632;2023-03-01T03:32:08;96406.88;;;0.62
61595;BMP280;47397;48.194;11.632;2023-03-01T03:33:09;96399.16;;;0.52
61595;BMP280;47397;48.194;11.632;2023-03-01T03:34:10;96403.25;;;0.48
61595;BMP280;47397;48.194;11.632;2023-03-01T03:35:10;96395.72;;;0.48
61595;BMP280;47397;48.194;11.632;2023-03-01T03:36:15;96401.25;;;0.35
61595;BMP280;47397;48.194;11.632;2023-03-01T03:37:16;96392.47;;;0.51
61595;BMP280;47397;48.194;11.632;2023-03-01T03:38:18;96395.84;;;0.53
61595;BMP280;47397;48.194;11.632;2023-03-01T03:39:19;96397.56;;;0.55
61595;BMP280;47397;48.194;11.632;2023-03-01T03:40:19;96403.38;;;0.54
61595;BMP280;47397;48.194;11.632;2023-03-01T03:41:20;96397.50;;;0.52
61595;BMP280;47397;48.194;11.632;2023-03-01T03:42:20;96402.59;;;0.57
61595;BMP280;47397;48.194;11.632;2023-03-01T03:43:22;96401.53;;;0.47
61595;BMP280;47397;48.194;11.632;2023-03-01T03:44:22;96395.03;;;0.54
61595;BMP280;47397;48.194;11.632;2023-03-01T03:45:24;96390.84;;;0.53
61595;BMP280;47397;48.194;11.632;2023-03-01T03:46:25;96393.31;;;0.51
61595;BMP280;47397;48.194;11.632;2023-03-01T03:47:26;96392.59;;;0.57
61595;BMP280;47397;48.194;11.632;2023-03-01T03:48:26;96389.38;;;0.62
61595;BMP280;47397;48.194;11.632;2023-03-01T03:49:27;96391.22;;;0.71
61595;BMP280;47397;48.194;11.632;2023-03-01T03:50:27;96395.19;;;0.61
61595;BMP280;47397;48.194;11.632;2023-03-01T03:51:28;96388.38;;;0.54
61595;BMP280;47397;48.194;11.632;2023-03-01T03:52:28;96395.22;;;0.63
61595;BMP280;47397;48.194;11.632;2023-03-01T03:53:29;96386.69;;;0.53
61595;BMP280;47397;48.194;11.632;2023-03-01T03:54:29;96389.97;;;0.51
61595;BMP280;47397;48.194;11.632;2023-03-01T03:55:30;96385.16;;;0.60
61595;BMP280;47397;48.194;11.632;2023-03-01T03:56:31;96387.53;;;0.54
61595;BMP280;47397;48.194;11.632;2023-03-01T03:57:31;96381.75;;;0.56
61595;BMP280;47397;48.194;11.632;2023-03-01T03:58:32;96381.09;;;0.65
61595;BMP280;47397;48.194;11.632;2023-03-01T03:59:32;96381.47;;;0.44
61595;BMP280;47397;48.194;11.632;2023-03-01T04:00:35;96378.28;;;0.51
61595;BMP280;47397;48.194;11.632;2023-03-01T04:01:36;96381.09;;;0.65
61595;BMP280;47397;48.194;11.632;2023-03-01T04:02:36;96381.72;;;0.55
61595;BMP280;47397;48.194;11.632;2023-03-01T04:03:37;96379.22;;;0.55
61595;BMP280;47397;48.194;11.632;2023-03-01T04:04:37;96375.00;;;0.54
61595;BMP280;47397;48.194;11.632;2023-03-01T04:05:39;96369.16;;;0.53
61595;BMP280;47397;48.194;11.632;2023-03-01T04:06:39;96378.28;;;0.51
61595;BMP280;47397;48.194;11.632;2023-03-01T04:07:41;96372.47;;;0.52
61595;BMP280;47397;48.194;11.632;2023-03-01T04:08:42;96372.66;;;0.60
61595;BMP280;47397;48.194;11.632;2023-03-01T04:09:42;96371.50;;;0.46
61595;BMP280;47397;48.194;11.632;2023-03-01T04:10:45;96373.13;;;0.44
61595;BMP280;47397;48.194;11.632;2023-03-01T04:11:45;96371.94;;;0.29
61595;BMP280;47397;48.194;11.632;2023-03-01T04:12:46;96370.38;;;0.35
61595;BMP280;47397;48.194;11.632;2023-03-01T04:13:46;96371.44;;;0.43
61595;BMP280;47397;48.194;11.632;2023-03-01T04:14:47;96372.72;;;0.27
61595;BMP280;47397;48.194;11.632;2023-03-01T04:15:49;96367.66;;;0.24
61595;BMP280;47397;48.194;11.632;2023-03-01T04:16:49;96371.97;;;0.31
61595;BMP280;47397;48.194;11.632;2023-03-01T04:17:51;96375.16;;;0.24
61595;BMP280;47397;48.194;11.632;2023-03-01T04:18:52;96377.03;;;0.34
61595;BMP280;47397;48.194;11.632;2023-03-01T04:19:52;96375.75;;;0.14
61595;BMP280;47397;48.194;11.632;2023-03-01T04:20:53;96377.03;;;-0.01
61595;BMP280;47397;48.194;11.632;2023-03-01T04:21:53;96384.06;;;0.13
61595;BMP280;47397;48.194;11.632;2023-03-01T04:22:57;96370.81;;;0.17
61595;BMP280;47397;48.194;11.632;2023-03-01T04:23:58;96374.59;;;0.36
61595;BMP280;47397;48.194;11.632;2023-03-01T04:24:58;96372.56;;;0.21
61595;BMP280;47397;48.194;11.632;2023-03-01T04:25:59;96374.31;;;0.23
61595;BMP280;47397;48.194;11.632;2023-03-01T04:26:59;96368.53;;;0.26
61595;BMP280;47397;48.194;11.632;2023-03-01T04:28:00;96368.59;;;0.29
61595;BMP280;47397;48.194;11.632;2023-03-01T04:29:00;96368.78;;;0.01
61595;BMP280;47397;48.194;11.632;2023-03-01T04:30:01;96379.72;;;0.06
61595;BMP280;47397;48.194;11.632;2023-03-01T04:31:05;96376.97;;;-0.04
61595;BMP280;47397;48.194;11.632;2023-03-01T04:32:06;96376.25;;;0.01
61595;BMP280;47397;48.194;11.632;2023-03-01T04:33:08;96377.91;;;0.00
61595;BMP280;47397;48.194;11.632;2023-03-01T04:34:08;96377.16;;;0.03
61595;BMP280;47397;48.194;11.632;2023-03-01T04:35:09;96376.31;;;0.02
61595;BMP280;47397;48.194;11.632;2023-03-01T04:36:10;96384.94;;;0.15
61595;BMP280;47397;48.194;11.632;2023-03-01T04:37:11;96381.53;;;0.11
61595;BMP280;47397;48.194;11.632;2023-03-01T04:38:11;96379.78;;;0.09
61595;BMP280;47397;48.194;11.632;2023-03-01T04:39:12;96368.84;;;0.04
61595;BMP280;47397;48.194;11.632;2023-03-01T04:40:12;96369.94;;;-0.18
61595;BMP280;47397;48.194;11.632;2023-03-01T04:41:14;96376.16;;;-0.03
61595;BMP280;47397;48.194;11.632;2023-03-01T04:42:16;96377.13;;;0.01
61595;BMP280;47397;48.194;11.632;2023-03-01T04:43:16;96368.03;;;0.05
61595;BMP280;47397;48.194;11.632;2023-03-01T04:44:16;96367.94;;;0.00
61595;BMP280;47397;48.194;11.632;2023-03-01T04:45:17;96374.31;;;-0.10
61595;BMP280;47397;48.194;11.632;2023-03-01T04:46:20;96371.78;;;-0.11
61595;BMP280;47397;48.194;11.632;2023-03-01T04:47:20;96371.09;;;-0.06
61595;BMP280;47397;48.194;11.632;2023-03-01T04:48:21;96377.22;;;0.06
61595;BMP280;47397;48.194;11.632;2023-03-01T04:49:21;96369.06;;;0.13
61595;BMP280;47397;48.194;11.632;2023-03-01T04:50:22;96370.75;;;0.14
61595;BMP280;47397;48.194;11.632;2023-03-01T04:51:22;96369.84;;;0.10
61595;BMP280;47397;48.194;11.632;2023-03-01T04:52:23;96373.50;;;-0.09
61595;BMP280;47397;48.194;11.632;2023-03-01T04:53:23;96365.69;;;-0.22
61595;BMP280;47397;48.194;11.632;2023-03-01T04:54:24;96369.91;;;-0.20
61595;BMP280;47397;48.194;11.632;2023-03-01T04:55:25;96368.34;;;-0.16
61595;BMP280;47397;48.194;11.632;2023-03-01T04:56:26;96373.44;;;-0.12
61595;BMP280;47397;48.194;11.632;2023-03-01T04:57:26;96362.50;;;-0.17
61595;BMP280;47397;48.194;11.632;2023-03-01T04:58:27;96371.91;;;-0.07
61595;BMP280;47397;48.194;11.632;2023-03-01T04:59:27;96367.84;;;-0.02
61595;BMP280;47397;48.194;11.632;2023-03-01T05:00:28;96369.63;;;0.01
61595;BMP280;47397;48.194;11.632;2023-03-01T05:01:30;96360.38;;;-0.02
61595;BMP280;47397;48.194;11.632;2023-03-01T05:02:30;96366.19;;;-0.01
61595;BMP280;47397;48.194;11.632;2023-03-01T05:03:30;96367.50;;;-0.17
61595;BMP280;47397;48.194;11.632;2023-03-01T05:04:31;96366.91;;;-0.07
61595;BMP280;47397;48.194;11.632;2023-03-01T05:05:34;96366.91;;;-0.07
61595;BMP280;47397;48.194;11.632;2023-03-01T05:06:34;96363.03;;;0.05
61595;BMP280;47397;48.194;11.632;2023-03-01T05:07:34;96360.06;;;-0.14
61595;BMP280;47397;48.194;11.632;2023-03-01T05:08:35;96365.94;;;-0.12
61595;BMP280;47397;48.194;11.632;2023-03-01T05:09:35;96363.69;;;-0.36
61595;BMP280;47397;48.194;11.632;2023-03-01T05:10:36;96363.91;;;-0.26
61595;BMP280;47397;48.194;11.632;2023-03-01T05:11:36;96360.09;;;-0.12
61595;BMP280;47397;48.194;11.632;2023-03-01T05:12:37;96364.13;;;-0.19
61595;BMP280;47397;48.194;11.632;2023-03-01T05:13:39;96356.84;;;-0.10
61595;BMP280;47397;48.194;11.632;2023-03-01T05:14:39;96361.88;;;-0.08
61595;BMP280;47397;48.194;11.632;2023-03-01T05:15:40;96354.50;;;-0.02
61595;BMP280;47397;48.194;11.632;2023-03-01T05:16:42;96358.66;;;-0.03
61595;BMP280;47397;48.194;11.632;2023-03-01T05:17:42;96360.25;;;-0.06
61595;BMP280;47397;48.194;11.632;2023-03-01T05:18:43;96354.69;;;-0.29
61595;BMP280;47397;48.194;11.632;2023-03-01T05:19:43;96364.72;;;-0.27
61595;BMP280;47397;48.194;11.632;2023-03-01T05:20:44;96362.56;;;-0.14
61595;BMP280;47397;48.194;11.632;2023-03-01T05:21:44;96360.94;;;-0.12
61595;BMP280;47397;48.194;11.632;2023-03-01T05:22:44;96354.94;;;-0.20
61595;BMP280;47397;48.194;11.632;2023-03-01T05:23:45;96355.09;;;-0.12
61595;BMP280;47397;48.194;11.632;2023-03-01T05:24:45;96356.78;;;-0.11
61595;BMP280;47397;48.194;11.632;2023-03-01T05:25:46;96362.50;;;-0.17
61595;BMP280;47397;48.194;11.632;2023-03-01T05:26:46;96358.13;;;-0.25
61595;BMP280;47397;48.194;11.632;2023-03-01T05:27:47;96360.19;;;-0.09
61595;BMP280;47397;48.194;11.632;2023-03-01T05:28:47;96361.84;;;-0.10
61595;BMP280;47397;48.194;11.632;2023-03-01T05:29:48;96354.66;;;-0.30
61595;BMP280;47397;48.194;11.632;2023-03-01T05:30:48;96364.69;;;-0.29
61595;BMP280;47397;48.194;11.632;2023-03-01T05:31:51;96362.31;;;-0.24
61595;BMP280;47397;48.194;11.632;2023-03-01T05:32:51;96360.16;;;-0.42
61595;BMP280;47397;48.194;11.632;2023-03-01T05:33:52;96352.09;;;-0.34
61595;BMP280;47397;48.194;11.632;2023-03-01T05:34:52;96351.41;;;-0.28
61595;BMP280;47397;48.194;11.632;2023-03-01T05:35:53;96352.00;;;-0.37
61595;BMP280;47397;48.194;11.632;2023-03-01T05:36:53;96355.97;;;-0.43
61595;BMP280;47397;48.194;11.632;2023-03-01T05:37:54;96361.09;;;-0.39
61595;BMP280;47397;48.194;11.632;2023-03-01T05:38:54;96358.47;;;-0.43
61595;BMP280;47397;48.194;11.632;2023-03-01T05:39:55;96356.75;;;-0.46
61595;BMP280;47397;48.194;11.632;2023-03-01T05:40:55;96348.50;;;-0.43
61595;BMP280;47397;48.194;11.632;2023-03-01T05:41:59;96354.75;;;-0.27
61595;BMP280;47397;48.194;11.632;2023-03-01T05:43:00;96350.50;;;-0.30
61595;BMP280;47397;48.194;11.632;2023-03-01T05:44:01;96351.75;;;-0.46
61595;BMP280;47397;48.194;11.632;2023-03-01T05:45:01;96354.22;;;-0.47
61595;BMP280;47397;48.194;11.632;2023-03-01T05:46:02;96350.00;;;-0.50
61595;BMP280;47397;48.194;11.632;2023-03-01T05:47:03;96349.78;;;-0.57
61595;BMP280;47397;48.194;11.632;2023-03-01T05:48:05;96348.88;;;-0.61
61595;BMP280;47397;48.194;11.632;2023-03-01T05:49:05;96348.22;;;-0.54
61595;BMP280;47397;48.194;11.632;2023-03-01T05:50:06;96350.91;;;-0.46
61595;BMP280;47397;48.194;11.632;2023-03-01T05:51:07;96348.78;;;-0.64
61595;BMP280;47397;48.194;11.632;2023-03-01T05:52:08;96347.41;;;-0.53
61595;BMP280;47397;48.194;11.632;2023-03-01T05:53:10;96341.06;;;-0.73